Fernando Pessoa — CSKQ — position and weather

sailwx.info

Track history (hours):
 
Tides and Currents Weather Stations Pressure Air Temp Water Temp Dewpoint Dewpoint Depression Visibility Wind Speed Wind Dir Waves Ship Positions

Fernando Pessoa

Last reported at 2017-Apr-28 21:29 UTC. Time now 2017-Apr-29 09:31 UTC.
Position N 38°39' W 009°05'.

Length 49 m.

MMSI: 263701470.

Date/timePositionNaut miles runAvg speedWind from/ knotsBaromVisibWave heightAir tempDewpointWater temp
2017-Apr-28 21:29N 38°39' W 009°05'0 0.0
2017-Apr-28 21:00N 38°39' W 009°05'0 0.2
2017-Apr-28 20:30N 38°39' W 009°05'4 8.4
2017-Apr-28 20:00N 38°42' W 009°08'4 8.3
2017-Apr-28 19:30N 38°39' W 009°05'1 2.7
2017-Apr-28 19:00N 38°40' W 009°06'2 3.3
2017-Apr-28 18:31N 38°41' W 009°08'1 1.6
2017-Apr-28 18:01N 38°40' W 009°07'1 2.8
2017-Apr-28 17:30N 38°39' W 009°06'3 6.8
2017-Apr-28 17:00N 38°42' W 009°08'4 8.3
2017-Apr-28 16:30N 38°39' W 009°05'4 8.3
2017-Apr-28 16:01N 38°42' W 009°08'4 7.5
2017-Apr-28 15:31N 38°39' W 009°06'3 5.5
2017-Apr-28 15:01N 38°41' W 009°08'3 6.1
2017-Apr-28 14:30N 38°39' W 009°05'0 0.0
2017-Apr-28 09:52N 38°39' W 009°05'0 0.3
2017-Apr-28 09:30N 38°39' W 009°05'3 6.2
2017-Apr-28 09:00N 38°41' W 009°08'2 5.0
2017-Apr-28 08:30N 38°39' W 009°06'2 4.9
2017-Apr-28 08:00N 38°41' W 009°08'3 6.2
2017-Apr-28 07:31N 38°39' W 009°05'4 8.3
2017-Apr-28 07:00N 38°42' W 009°08'4 8.4
2017-Apr-28 06:30N 38°39' W 009°05'4 8.1
2017-Apr-28 06:01N 38°42' W 009°08'4 8.0
2017-Apr-28 05:30N 38°39' W 009°05'0 0.0
2017-Apr-27 17:17N 38°39' W 009°05'2 8.0
2017-Apr-27 17:00N 38°40' W 009°07'1 2.7
2017-Apr-27 16:30N 38°39' W 009°06'3 6.9
2017-Apr-27 16:00N 38°42' W 009°08'4 8.3
2017-Apr-27 15:30N 38°39' W 009°05'4 7.7
2017-Apr-27 15:00N 38°42' W 009°08'4 3.8
2017-Apr-27 14:00N 38°39' W 009°05'0 0.0
2017-Apr-27 13:30N 38°39' W 009°05'0 0.0
2017-Apr-27 12:57N 38°39' W 009°05'0 0.0
2017-Apr-27 12:29N 38°39' W 009°05'0 0.0
2017-Apr-27 11:59N 38°39' W 009°05'0 0.0
2017-Apr-27 11:30N 38°39' W 009°05'0 0.0
2017-Apr-27 11:00N 38°39' W 009°05'0 0.0
2017-Apr-27 10:30N 38°39' W 009°05'4 7.8
2017-Apr-27 10:01N 38°42' W 009°08'4 7.6
2017-Apr-27 09:30N 38°39' W 009°05'0 0.2
2017-Apr-27 09:00N 38°39' W 009°05'0 0.0
2017-Apr-26 20:40N 38°39' W 009°05'0 1.2
2017-Apr-26 20:30N 38°39' W 009°05'4 8.4
2017-Apr-26 20:00N 38°42' W 009°08'4 8.1
2017-Apr-26 19:29N 38°39' W 009°05'0 0.0
2017-Apr-26 19:00N 38°39' W 009°05'0 0.0
2017-Apr-26 18:30N 38°39' W 009°05'0 0.0
2017-Apr-26 18:00N 38°39' W 009°05'0 0.0
2017-Apr-26 17:30N 38°39' W 009°05'4 8.5
2017-Apr-26 17:01N 38°42' W 009°08'4 8.3
2017-Apr-26 16:30N 38°39' W 009°05'4 8.2
2017-Apr-26 16:00N 38°42' W 009°08'4 7.3
2017-Apr-26 15:30N 38°39' W 009°06'3 5.4
2017-Apr-26 15:00N 38°41' W 009°08'3 6.4
2017-Apr-26 14:30N 38°39' W 009°05'0 0.0
2017-Apr-26 12:20N 38°39' W 009°05'3 9.2
2017-Apr-26 12:00N 38°41' W 009°08'2 4.9
2017-Apr-26 11:31N 38°39' W 009°06'3 5.3
2017-Apr-26 11:00N 38°41' W 009°08'3 5.8
2017-Apr-26 10:30N 38°39' W 009°05'1 1.1
2017-Apr-26 10:00N 38°39' W 009°05'4 7.3
2017-Apr-26 09:31N 38°42' W 009°08'3 6.3
2017-Apr-26 09:00N 38°39' W 009°05'1 1.1
2017-Apr-26 08:30N 38°39' W 009°05'0 0.0
2017-Apr-26 03:27N 38°39' W 009°05'0 0.0
2017-Apr-26 03:00N 38°39' W 009°05'0 0.0
2017-Apr-26 02:30N 38°39' W 009°05'0 0.0
2017-Apr-26 02:00N 38°39' W 009°05'0 0.0
2017-Apr-26 01:30N 38°39' W 009°05'0 0.0
2017-Apr-26 01:00N 38°39' W 009°05'0 0.0
2017-Apr-26 00:30N 38°39' W 009°05'0 0.0
2017-Apr-26 00:00N 38°39' W 009°05'0 0.0
2017-Apr-25 23:30N 38°39' W 009°05'0 0.0
2017-Apr-25 23:00N 38°39' W 009°05'0 0.0
2017-Apr-25 21:27N 38°39' W 009°05'0 0.0
2017-Apr-25 21:00N 38°39' W 009°05'4 7.5
2017-Apr-25 20:30N 38°42' W 009°08'3 6.3
2017-Apr-25 20:00N 38°39' W 009°06'1 1.3
2017-Apr-25 19:30N 38°39' W 009°05'3 6.7
2017-Apr-25 19:00N 38°41' W 009°08'3 5.3
2017-Apr-25 18:29N 38°39' W 009°06'3 5.8
2017-Apr-25 18:00N 38°41' W 009°08'3 5.7
2017-Apr-25 17:29N 38°39' W 009°05'3 6.6
2017-Apr-25 17:00N 38°42' W 009°08'3 6.0
2017-Apr-25 16:30N 38°39' W 009°06'3 6.1
2017-Apr-25 16:00N 38°42' W 009°08'3 5.6
2017-Apr-25 15:30N 38°39' W 009°06'3 5.6
2017-Apr-25 15:01N 38°42' W 009°08'0 0.1
2017-Apr-25 14:01N 38°42' W 009°08'3 6.1
2017-Apr-25 13:29N 38°39' W 009°05'3 6.6
2017-Apr-25 13:00N 38°42' W 009°08'3 5.8
2017-Apr-25 12:30N 38°39' W 009°06'1 1.6
2017-Apr-25 12:00N 38°39' W 009°05'0 0.0
2017-Apr-25 11:30N 38°39' W 009°05'0 0.0
2017-Apr-25 11:00N 38°39' W 009°05'0 0.0
2017-Apr-25 10:28N 38°39' W 009°05'0 0.0
2017-Apr-25 10:00N 38°39' W 009°05'0 0.0
2017-Apr-25 09:30N 38°39' W 009°05'0 0.0
2017-Apr-25 09:00N 38°39' W 009°05'3 6.4
2017-Apr-25 08:31N 38°41' W 009°08'2 3.0
2017-Apr-25 08:00N 38°43' W 009°07'1 1.8
2017-Apr-25 07:30N 38°43' W 009°06'4 8.6
2017-Apr-25 07:00N 38°39' W 009°05'1 1.1
2017-Apr-25 06:30N 38°39' W 009°05'2 4.2
2017-Apr-25 06:01N 38°40' W 009°08'1 1.9
2017-Apr-25 05:30N 38°40' W 009°07'1 3.0
2017-Apr-25 05:00N 38°41' W 009°08'3 0.5
2017-Apr-24 23:03N 38°39' W 009°05'0 0.1
2017-Apr-24 23:00N 38°39' W 009°05'4 8.4
2017-Apr-24 22:30N 38°42' W 009°08'4 8.2
2017-Apr-24 22:00N 38°39' W 009°05'3 6.8
2017-Apr-24 21:31N 38°41' W 009°08'3 6.6
2017-Apr-24 21:00N 38°39' W 009°05'3 6.8
2017-Apr-24 20:30N 38°42' W 009°08'3 6.7
2017-Apr-24 20:00N 38°39' W 009°05'0 0.0
2017-Apr-24 19:30N 38°39' W 009°05'4 8.3
2017-Apr-24 19:00N 38°42' W 009°08'4 8.3
2017-Apr-24 18:30N 38°39' W 009°05'4 8.5
2017-Apr-24 18:01N 38°42' W 009°08'4 8.3
2017-Apr-24 17:30N 38°39' W 009°05'4 8.0
2017-Apr-24 17:00N 38°42' W 009°08'2 4.0
2017-Apr-24 16:30N 38°40' W 009°07'0 0.8
2017-Apr-24 16:00N 38°40' W 009°07'2 3.7
2017-Apr-24 15:30N 38°39' W 009°05'0 0.0
2017-Apr-24 12:16N 38°39' W 009°05'0 0.0
2017-Apr-24 12:00N 38°39' W 009°05'0 0.0
2017-Apr-24 11:30N 38°39' W 009°05'0 0.0
2017-Apr-24 11:00N 38°39' W 009°05'0 0.0
2017-Apr-24 10:30N 38°39' W 009°05'4 7.2
2017-Apr-24 10:00N 38°42' W 009°08'3 5.6
2017-Apr-24 09:31N 38°39' W 009°06'1 1.6
2017-Apr-24 09:00N 38°39' W 009°05'4 8.3
2017-Apr-24 08:31N 38°42' W 009°08'3 5.5
2017-Apr-24 08:01N 38°40' W 009°07'0 0.3
2017-Apr-24 07:31N 38°40' W 009°07'3 5.6
2017-Apr-24 07:00N 38°42' W 009°08'4 8.3
2017-Apr-24 06:30N 38°39' W 009°05'0 0.2
2017-Apr-24 06:01N 38°39' W 009°05'0 0.2
2017-Apr-24 05:31N 38°39' W 009°05'3 7.0
2017-Apr-24 05:00N 38°42' W 009°08'3 6.8
2017-Apr-24 04:30N 38°39' W 009°05'0 0.0
2017-Apr-23 20:53N 38°39' W 009°05'4 9.6
2017-Apr-23 20:31N 38°42' W 009°08'3 5.4
2017-Apr-23 20:01N 38°40' W 009°06'1 2.0
2017-Apr-23 19:30N 38°39' W 009°05'3 6.2
2017-Apr-23 19:01N 38°41' W 009°08'2 4.6
2017-Apr-23 18:31N 38°39' W 009°06'3 5.0
2017-Apr-23 18:00N 38°41' W 009°08'3 5.3
2017-Apr-23 17:30N 38°39' W 009°06'3 5.7
2017-Apr-23 17:00N 38°42' W 009°08'3 5.4
2017-Apr-23 16:31N 38°39' W 009°06'3 5.5
2017-Apr-23 16:01N 38°42' W 009°08'3 5.8
2017-Apr-23 15:30N 38°39' W 009°06'3 5.8
2017-Apr-23 15:00N 38°42' W 009°08'0 0.3
2017-Apr-23 14:00N 38°42' W 009°08'3 5.7
2017-Apr-23 13:31N 38°39' W 009°06'3 5.4
2017-Apr-23 13:00N 38°42' W 009°08'3 5.5
2017-Apr-23 12:30N 38°39' W 009°06'1 1.7
2017-Apr-23 12:00N 38°39' W 009°05'0 0.0
2017-Apr-23 11:30N 38°39' W 009°05'0 0.0
2017-Apr-23 11:00N 38°39' W 009°05'0 0.0
2017-Apr-23 10:30N 38°39' W 009°05'0 0.0
2017-Apr-23 10:00N 38°39' W 009°05'0 0.0
2017-Apr-23 09:30N 38°39' W 009°05'0 0.0
2017-Apr-23 09:00N 38°39' W 009°05'0 0.0
2017-Apr-23 08:31N 38°39' W 009°05'3 6.8
2017-Apr-23 08:01N 38°42' W 009°07'1 2.7
2017-Apr-23 07:30N 38°43' W 009°06'4 8.2
2017-Apr-23 07:00N 38°39' W 009°06'0 0.4
2017-Apr-23 06:31N 38°39' W 009°05'2 4.2
2017-Apr-23 06:01N 38°40' W 009°08'1 2.3
2017-Apr-23 05:30N 38°40' W 009°06'1 2.8
2017-Apr-23 05:00N 38°41' W 009°08'3 5.4
2017-Apr-23 04:30N 38°39' W 009°05'0 0.0
2017-Apr-22 21:25N 38°39' W 009°05'0 0.0
2017-Apr-22 21:00N 38°39' W 009°05'3 6.7
2017-Apr-22 20:31N 38°42' W 009°08'3 5.3
2017-Apr-22 20:00N 38°39' W 009°06'1 1.6
2017-Apr-22 19:30N 38°39' W 009°05'3 6.5
2017-Apr-22 19:00N 38°41' W 009°08'2 4.5
2017-Apr-22 18:30N 38°40' W 009°06'2 5.0
2017-Apr-22 18:01N 38°42' W 009°08'3 5.3
2017-Apr-22 17:30N 38°39' W 009°06'3 5.3
2017-Apr-22 17:00N 38°42' W 009°08'3 5.5
2017-Apr-22 16:31N 38°39' W 009°06'3 5.9
2017-Apr-22 16:01N 38°42' W 009°08'3 5.6
2017-Apr-22 15:30N 38°39' W 009°06'3 5.8
2017-Apr-22 15:01N 38°42' W 009°08'3 5.8
2017-Apr-22 14:30N 38°39' W 009°06'0 0.3
2017-Apr-22 13:30N 38°39' W 009°06'3 6.2
2017-Apr-22 13:00N 38°42' W 009°08'3 5.8
2017-Apr-22 12:30N 38°39' W 009°06'1 1.5
2017-Apr-22 12:00N 38°39' W 009°05'0 0.0
2017-Apr-22 11:30N 38°39' W 009°05'0 0.0
2017-Apr-22 11:00N 38°39' W 009°05'0 0.0
2017-Apr-22 10:30N 38°39' W 009°05'0 0.0
2017-Apr-22 10:00N 38°39' W 009°05'3 6.9
2017-Apr-22 09:30N 38°41' W 009°08'3 5.6
2017-Apr-22 09:00N 38°39' W 009°06'3 5.8
2017-Apr-22 08:31N 38°42' W 009°08'3 5.6
2017-Apr-22 08:00N 38°39' W 009°06'3 6.0
2017-Apr-22 07:30N 38°42' W 009°08'3 6.4
2017-Apr-22 07:00N 38°39' W 009°05'0 0.2
2017-Apr-22 06:31N 38°39' W 009°05'2 4.0
2017-Apr-22 06:01N 38°40' W 009°07'1 1.5
2017-Apr-22 05:30N 38°40' W 009°07'1 2.8
2017-Apr-22 05:01N 38°41' W 009°08'3 0.5
2017-Apr-21 22:58N 38°39' W 009°05'4 9.0
2017-Apr-21 22:30N 38°42' W 009°08'4 8.3
2017-Apr-21 22:00N 38°39' W 009°05'3 6.5
2017-Apr-21 21:31N 38°41' W 009°08'3 6.5
2017-Apr-21 21:00N 38°39' W 009°05'3 6.8
2017-Apr-21 20:30N 38°41' W 009°08'3 6.7
2017-Apr-21 20:00N 38°39' W 009°05'0 0.0
2017-Apr-21 19:30N 38°39' W 009°05'4 8.3
2017-Apr-21 19:01N 38°42' W 009°08'4 8.4
2017-Apr-21 18:31N 38°39' W 009°05'4 8.3
2017-Apr-21 18:00N 38°42' W 009°08'4 8.4
2017-Apr-21 17:30N 38°39' W 009°05'4 7.8
2017-Apr-21 17:01N 38°42' W 009°08'2 4.5
2017-Apr-21 16:30N 38°40' W 009°07'0 1.0
2017-Apr-21 16:01N 38°40' W 009°07'2 4.6
2017-Apr-21 15:30N 38°39' W 009°05'0 0.0
2017-Apr-21 12:58N 38°39' W 009°05'3 6.9
2017-Apr-21 12:31N 38°41' W 009°08'3 5.1
2017-Apr-21 12:00N 38°39' W 009°06'3 6.2
2017-Apr-21 11:31N 38°42' W 009°08'3 6.7
2017-Apr-21 10:59N 38°39' W 009°05'4 7.7
2017-Apr-21 10:30N 38°42' W 009°08'4 6.9
2017-Apr-21 09:56N 38°39' W 009°05'0 0.0
2017-Apr-21 09:28N 38°39' W 009°05'3 7.2
2017-Apr-21 09:00N 38°41' W 009°08'3 5.1
2017-Apr-21 08:30N 38°39' W 009°06'2 4.7
2017-Apr-21 08:00N 38°41' W 009°08'3 6.2
2017-Apr-21 07:30N 38°39' W 009°05'4 8.3
2017-Apr-21 07:00N 38°42' W 009°08'4 8.5
2017-Apr-21 06:30N 38°39' W 009°05'4 7.3
2017-Apr-21 06:00N 38°42' W 009°08'4 7.4
2017-Apr-21 05:31N 38°39' W 009°05'0 0.0
2017-Apr-20 20:13N 38°39' W 009°05'2 8.8
2017-Apr-20 20:00N 38°40' W 009°07'1 1.6
2017-Apr-20 19:30N 38°41' W 009°07'3 5.3
2017-Apr-20 19:00N 38°39' W 009°05'2 4.1
2017-Apr-20 18:30N 38°40' W 009°07'1 1.6
2017-Apr-20 18:01N 38°40' W 009°06'3 6.1
2017-Apr-20 17:31N 38°42' W 009°08'4 8.3
2017-Apr-20 17:01N 38°39' W 009°05'4 7.8
2017-Apr-20 16:31N 38°42' W 009°08'2 4.7
2017-Apr-20 16:00N 38°40' W 009°07'1 1.8
2017-Apr-20 15:31N 38°41' W 009°08'3 5.2
2017-Apr-20 14:59N 38°39' W 009°05'0 0.0
2017-Apr-20 14:30N 38°39' W 009°05'0 0.4
2017-Apr-20 13:28N 38°39' W 009°05'3 6.9
2017-Apr-20 13:00N 38°42' W 009°08'3 5.8
2017-Apr-20 12:30N 38°39' W 009°06'3 6.2
2017-Apr-20 12:00N 38°42' W 009°08'3 5.9
2017-Apr-20 11:29N 38°39' W 009°05'3 6.1
2017-Apr-20 11:00N 38°41' W 009°08'3 5.0
2017-Apr-20 10:30N 38°39' W 009°06'1 1.8
2017-Apr-20 09:59N 38°39' W 009°05'0 0.0
2017-Apr-20 09:30N 38°39' W 009°05'4 8.2
2017-Apr-20 09:01N 38°42' W 009°08'4 8.1
2017-Apr-20 08:31N 38°39' W 009°05'4 8.3
2017-Apr-20 08:00N 38°42' W 009°08'4 7.0
2017-Apr-20 07:30N 38°39' W 009°06'2 3.4
2017-Apr-20 07:01N 38°40' W 009°07'1 1.4
2017-Apr-20 06:30N 38°40' W 009°07'1 2.8
2017-Apr-20 06:00N 38°39' W 009°05'0 0.8
2017-Apr-20 05:29N 38°39' W 009°05'0 0.0
2017-Apr-19 20:29N 38°39' W 009°05'4 8.6
2017-Apr-19 20:00N 38°42' W 009°08'4 8.3
2017-Apr-19 19:30N 38°39' W 009°05'2 3.4
2017-Apr-19 19:00N 38°40' W 009°07'1 2.4
2017-Apr-19 18:31N 38°41' W 009°08'1 2.4
2017-Apr-19 18:00N 38°40' W 009°07'0 0.7
2017-Apr-19 17:30N 38°40' W 009°06'3 5.9
2017-Apr-19 17:00N 38°42' W 009°08'4 8.3
2017-Apr-19 16:31N 38°39' W 009°05'4 8.2
2017-Apr-19 16:00N 38°42' W 009°08'4 7.7
2017-Apr-19 15:30N 38°39' W 009°05'4 7.7
2017-Apr-19 15:00N 38°42' W 009°08'4 7.9
2017-Apr-19 14:30N 38°39' W 009°05'0 0.1
2017-Apr-19 13:24N 38°39' W 009°05'0 0.0
2017-Apr-19 12:58N 38°39' W 009°05'0 0.0
2017-Apr-19 12:28N 38°39' W 009°05'0 0.0
2017-Apr-19 12:00N 38°39' W 009°05'0 0.0
2017-Apr-19 11:29N 38°39' W 009°05'0 0.0
2017-Apr-19 10:57N 38°39' W 009°05'0 0.0
2017-Apr-19 10:30N 38°39' W 009°05'0 0.0
2017-Apr-19 10:00N 38°39' W 009°05'4 7.4
2017-Apr-19 09:30N 38°42' W 009°08'3 6.9
2017-Apr-19 09:00N 38°39' W 009°05'1 1.0
2017-Apr-19 08:31N 38°39' W 009°05'3 5.9
2017-Apr-19 08:01N 38°41' W 009°08'1 2.1
2017-Apr-19 07:31N 38°40' W 009°07'2 3.3
2017-Apr-19 07:00N 38°39' W 009°05'4 7.5
2017-Apr-19 06:30N 38°42' W 009°08'4 8.3
2017-Apr-19 06:00N 38°39' W 009°05'4 7.2
2017-Apr-19 05:30N 38°42' W 009°08'3 6.6
2017-Apr-19 05:00N 38°39' W 009°05'3 6.4
2017-Apr-19 04:30N 38°42' W 009°08'3 6.9
2017-Apr-19 04:00N 38°39' W 009°05'0 0.0
2017-Apr-19 03:30N 38°39' W 009°05'0 0.0
2017-Apr-19 03:00N 38°39' W 009°05'0 0.0
2017-Apr-19 02:30N 38°39' W 009°05'0 0.0
2017-Apr-19 02:00N 38°39' W 009°05'0 0.0
2017-Apr-19 01:30N 38°39' W 009°05'4 8.2
2017-Apr-19 01:00N 38°42' W 009°08'4 8.3
2017-Apr-19 00:30N 38°39' W 009°05'4 8.3
2017-Apr-19 00:00N 38°42' W 009°08'4 8.3
2017-Apr-18 23:30N 38°39' W 009°05'4 8.3
2017-Apr-18 23:00N 38°42' W 009°08'4 8.3
2017-Apr-18 22:30N 38°39' W 009°05'3 6.9
2017-Apr-18 22:00N 38°42' W 009°08'3 5.2
2017-Apr-18 21:30N 38°39' W 009°06'  
Track history (hours):
 
Tides and Currents Weather Stations Pressure Air Temp Water Temp Dewpoint Dewpoint Depression Visibility Wind Speed Wind Dir Waves Ship Positions

Fernando Pessoa

Last reported at 2017-Apr-28 21:29 UTC. Time now 2017-Apr-29 09:31 UTC.
Position N 38°39' W 009°05'.

Length 49 m.

MMSI: 263701470.

Date/timePositionNaut miles runAvg speedWind from/ knotsBaromVisibWave heightAir tempDewpointWater temp
2017-Apr-28 21:29N 38°39' W 009°05'0 0.0
2017-Apr-28 21:00N 38°39' W 009°05'0 0.2
2017-Apr-28 20:30N 38°39' W 009°05'4 8.4
2017-Apr-28 20:00N 38°42' W 009°08'4 8.3
2017-Apr-28 19:30N 38°39' W 009°05'1 2.7
2017-Apr-28 19:00N 38°40' W 009°06'2 3.3
2017-Apr-28 18:31N 38°41' W 009°08'1 1.6
2017-Apr-28 18:01N 38°40' W 009°07'1 2.8
2017-Apr-28 17:30N 38°39' W 009°06'3 6.8
2017-Apr-28 17:00N 38°42' W 009°08'4 8.3
2017-Apr-28 16:30N 38°39' W 009°05'4 8.3
2017-Apr-28 16:01N 38°42' W 009°08'4 7.5
2017-Apr-28 15:31N 38°39' W 009°06'3 5.5
2017-Apr-28 15:01N 38°41' W 009°08'3 6.1
2017-Apr-28 14:30N 38°39' W 009°05'0 0.0
2017-Apr-28 09:52N 38°39' W 009°05'0 0.3
2017-Apr-28 09:30N 38°39' W 009°05'3 6.2
2017-Apr-28 09:00N 38°41' W 009°08'2 5.0
2017-Apr-28 08:30N 38°39' W 009°06'2 4.9
2017-Apr-28 08:00N 38°41' W 009°08'3 6.2
2017-Apr-28 07:31N 38°39' W 009°05'4 8.3
2017-Apr-28 07:00N 38°42' W 009°08'4 8.4
2017-Apr-28 06:30N 38°39' W 009°05'4 8.1
2017-Apr-28 06:01N 38°42' W 009°08'4 8.0
2017-Apr-28 05:30N 38°39' W 009°05'0 0.0
2017-Apr-27 17:17N 38°39' W 009°05'2 8.0
2017-Apr-27 17:00N 38°40' W 009°07'1 2.7
2017-Apr-27 16:30N 38°39' W 009°06'3 6.9
2017-Apr-27 16:00N 38°42' W 009°08'4 8.3
2017-Apr-27 15:30N 38°39' W 009°05'4 7.7
2017-Apr-27 15:00N 38°42' W 009°08'4 3.8
2017-Apr-27 14:00N 38°39' W 009°05'0 0.0
2017-Apr-27 13:30N 38°39' W 009°05'0 0.0
2017-Apr-27 12:57N 38°39' W 009°05'0 0.0
2017-Apr-27 12:29N 38°39' W 009°05'0 0.0
2017-Apr-27 11:59N 38°39' W 009°05'0 0.0
2017-Apr-27 11:30N 38°39' W 009°05'0 0.0
2017-Apr-27 11:00N 38°39' W 009°05'0 0.0
2017-Apr-27 10:30N 38°39' W 009°05'4 7.8
2017-Apr-27 10:01N 38°42' W 009°08'4 7.6
2017-Apr-27 09:30N 38°39' W 009°05'0 0.2
2017-Apr-27 09:00N 38°39' W 009°05'0 0.0
2017-Apr-26 20:40N 38°39' W 009°05'0 1.2
2017-Apr-26 20:30N 38°39' W 009°05'4 8.4
2017-Apr-26 20:00N 38°42' W 009°08'4 8.1
2017-Apr-26 19:29N 38°39' W 009°05'0 0.0
2017-Apr-26 19:00N 38°39' W 009°05'0 0.0
2017-Apr-26 18:30N 38°39' W 009°05'0 0.0
2017-Apr-26 18:00N 38°39' W 009°05'0 0.0
2017-Apr-26 17:30N 38°39' W 009°05'4 8.5
2017-Apr-26 17:01N 38°42' W 009°08'4 8.3
2017-Apr-26 16:30N 38°39' W 009°05'4 8.2
2017-Apr-26 16:00N 38°42' W 009°08'4 7.3
2017-Apr-26 15:30N 38°39' W 009°06'3 5.4
2017-Apr-26 15:00N 38°41' W 009°08'3 6.4
2017-Apr-26 14:30N 38°39' W 009°05'0 0.0
2017-Apr-26 12:20N 38°39' W 009°05'3 9.2
2017-Apr-26 12:00N 38°41' W 009°08'2 4.9
2017-Apr-26 11:31N 38°39' W 009°06'3 5.3
2017-Apr-26 11:00N 38°41' W 009°08'3 5.8
2017-Apr-26 10:30N 38°39' W 009°05'1 1.1
2017-Apr-26 10:00N 38°39' W 009°05'4 7.3
2017-Apr-26 09:31N 38°42' W 009°08'3 6.3
2017-Apr-26 09:00N 38°39' W 009°05'1 1.1
2017-Apr-26 08:30N 38°39' W 009°05'0 0.0
2017-Apr-26 03:27N 38°39' W 009°05'0 0.0
2017-Apr-26 03:00N 38°39' W 009°05'0 0.0
2017-Apr-26 02:30N 38°39' W 009°05'0 0.0
2017-Apr-26 02:00N 38°39' W 009°05'0 0.0
2017-Apr-26 01:30N 38°39' W 009°05'0 0.0
2017-Apr-26 01:00N 38°39' W 009°05'0 0.0
2017-Apr-26 00:30N 38°39' W 009°05'0 0.0
2017-Apr-26 00:00N 38°39' W 009°05'0 0.0
2017-Apr-25 23:30N 38°39' W 009°05'0 0.0
2017-Apr-25 23:00N 38°39' W 009°05'0 0.0
2017-Apr-25 21:27N 38°39' W 009°05'0 0.0
2017-Apr-25 21:00N 38°39' W 009°05'4 7.5
2017-Apr-25 20:30N 38°42' W 009°08'3 6.3
2017-Apr-25 20:00N 38°39' W 009°06'1 1.3
2017-Apr-25 19:30N 38°39' W 009°05'3 6.7
2017-Apr-25 19:00N 38°41' W 009°08'3 5.3
2017-Apr-25 18:29N 38°39' W 009°06'3 5.8
2017-Apr-25 18:00N 38°41' W 009°08'3 5.7
2017-Apr-25 17:29N 38°39' W 009°05'3 6.6
2017-Apr-25 17:00N 38°42' W 009°08'3 6.0
2017-Apr-25 16:30N 38°39' W 009°06'3 6.1
2017-Apr-25 16:00N 38°42' W 009°08'3 5.6
2017-Apr-25 15:30N 38°39' W 009°06'3 5.6
2017-Apr-25 15:01N 38°42' W 009°08'0 0.1
2017-Apr-25 14:01N 38°42' W 009°08'3 6.1
2017-Apr-25 13:29N 38°39' W 009°05'3 6.6
2017-Apr-25 13:00N 38°42' W 009°08'3 5.8
2017-Apr-25 12:30N 38°39' W 009°06'1 1.6
2017-Apr-25 12:00N 38°39' W 009°05'0 0.0
2017-Apr-25 11:30N 38°39' W 009°05'0 0.0
2017-Apr-25 11:00N 38°39' W 009°05'0 0.0
2017-Apr-25 10:28N 38°39' W 009°05'0 0.0
2017-Apr-25 10:00N 38°39' W 009°05'0 0.0
2017-Apr-25 09:30N 38°39' W 009°05'0 0.0
2017-Apr-25 09:00N 38°39' W 009°05'3 6.4
2017-Apr-25 08:31N 38°41' W 009°08'2 3.0
2017-Apr-25 08:00N 38°43' W 009°07'1 1.8
2017-Apr-25 07:30N 38°43' W 009°06'4 8.6
2017-Apr-25 07:00N 38°39' W 009°05'1 1.1
2017-Apr-25 06:30N 38°39' W 009°05'2 4.2
2017-Apr-25 06:01N 38°40' W 009°08'1 1.9
2017-Apr-25 05:30N 38°40' W 009°07'1 3.0
2017-Apr-25 05:00N 38°41' W 009°08'3 0.5
2017-Apr-24 23:03N 38°39' W 009°05'0 0.1
2017-Apr-24 23:00N 38°39' W 009°05'4 8.4
2017-Apr-24 22:30N 38°42' W 009°08'4 8.2
2017-Apr-24 22:00N 38°39' W 009°05'3 6.8
2017-Apr-24 21:31N 38°41' W 009°08'3 6.6
2017-Apr-24 21:00N 38°39' W 009°05'3 6.8
2017-Apr-24 20:30N 38°42' W 009°08'3 6.7
2017-Apr-24 20:00N 38°39' W 009°05'0 0.0
2017-Apr-24 19:30N 38°39' W 009°05'4 8.3
2017-Apr-24 19:00N 38°42' W 009°08'4 8.3
2017-Apr-24 18:30N 38°39' W 009°05'4 8.5
2017-Apr-24 18:01N 38°42' W 009°08'4 8.3
2017-Apr-24 17:30N 38°39' W 009°05'4 8.0
2017-Apr-24 17:00N 38°42' W 009°08'2 4.0
2017-Apr-24 16:30N 38°40' W 009°07'0 0.8
2017-Apr-24 16:00N 38°40' W 009°07'2 3.7
2017-Apr-24 15:30N 38°39' W 009°05'0 0.0
2017-Apr-24 12:16N 38°39' W 009°05'0 0.0
2017-Apr-24 12:00N 38°39' W 009°05'0 0.0
2017-Apr-24 11:30N 38°39' W 009°05'0 0.0
2017-Apr-24 11:00N 38°39' W 009°05'0 0.0
2017-Apr-24 10:30N 38°39' W 009°05'4 7.2
2017-Apr-24 10:00N 38°42' W 009°08'3 5.6
2017-Apr-24 09:31N 38°39' W 009°06'1 1.6
2017-Apr-24 09:00N 38°39' W 009°05'4 8.3
2017-Apr-24 08:31N 38°42' W 009°08'3 5.5
2017-Apr-24 08:01N 38°40' W 009°07'0 0.3
2017-Apr-24 07:31N 38°40' W 009°07'3 5.6
2017-Apr-24 07:00N 38°42' W 009°08'4 8.3
2017-Apr-24 06:30N 38°39' W 009°05'0 0.2
2017-Apr-24 06:01N 38°39' W 009°05'0 0.2
2017-Apr-24 05:31N 38°39' W 009°05'3 7.0
2017-Apr-24 05:00N 38°42' W 009°08'3 6.8
2017-Apr-24 04:30N 38°39' W 009°05'0 0.0
2017-Apr-23 20:53N 38°39' W 009°05'4 9.6
2017-Apr-23 20:31N 38°42' W 009°08'3 5.4
2017-Apr-23 20:01N 38°40' W 009°06'1 2.0
2017-Apr-23 19:30N 38°39' W 009°05'3 6.2
2017-Apr-23 19:01N 38°41' W 009°08'2 4.6
2017-Apr-23 18:31N 38°39' W 009°06'3 5.0
2017-Apr-23 18:00N 38°41' W 009°08'3 5.3
2017-Apr-23 17:30N 38°39' W 009°06'3 5.7
2017-Apr-23 17:00N 38°42' W 009°08'3 5.4
2017-Apr-23 16:31N 38°39' W 009°06'3 5.5
2017-Apr-23 16:01N 38°42' W 009°08'3 5.8
2017-Apr-23 15:30N 38°39' W 009°06'3 5.8
2017-Apr-23 15:00N 38°42' W 009°08'0 0.3
2017-Apr-23 14:00N 38°42' W 009°08'3 5.7
2017-Apr-23 13:31N 38°39' W 009°06'3 5.4
2017-Apr-23 13:00N 38°42' W 009°08'3 5.5
2017-Apr-23 12:30N 38°39' W 009°06'1 1.7
2017-Apr-23 12:00N 38°39' W 009°05'0 0.0
2017-Apr-23 11:30N 38°39' W 009°05'0 0.0
2017-Apr-23 11:00N 38°39' W 009°05'0 0.0
2017-Apr-23 10:30N 38°39' W 009°05'0 0.0
2017-Apr-23 10:00N 38°39' W 009°05'0 0.0
2017-Apr-23 09:30N 38°39' W 009°05'0 0.0
2017-Apr-23 09:00N 38°39' W 009°05'0 0.0
2017-Apr-23 08:31N 38°39' W 009°05'3 6.8
2017-Apr-23 08:01N 38°42' W 009°07'1 2.7
2017-Apr-23 07:30N 38°43' W 009°06'4 8.2
2017-Apr-23 07:00N 38°39' W 009°06'0 0.4
2017-Apr-23 06:31N 38°39' W 009°05'2 4.2
2017-Apr-23 06:01N 38°40' W 009°08'1 2.3
2017-Apr-23 05:30N 38°40' W 009°06'1 2.8
2017-Apr-23 05:00N 38°41' W 009°08'3 5.4
2017-Apr-23 04:30N 38°39' W 009°05'0 0.0
2017-Apr-22 21:25N 38°39' W 009°05'0 0.0
2017-Apr-22 21:00N 38°39' W 009°05'3 6.7
2017-Apr-22 20:31N 38°42' W 009°08'3 5.3
2017-Apr-22 20:00N 38°39' W 009°06'1 1.6
2017-Apr-22 19:30N 38°39' W 009°05'3 6.5
2017-Apr-22 19:00N 38°41' W 009°08'2 4.5
2017-Apr-22 18:30N 38°40' W 009°06'2 5.0
2017-Apr-22 18:01N 38°42' W 009°08'3 5.3
2017-Apr-22 17:30N 38°39' W 009°06'3 5.3
2017-Apr-22 17:00N 38°42' W 009°08'3 5.5
2017-Apr-22 16:31N 38°39' W 009°06'3 5.9
2017-Apr-22 16:01N 38°42' W 009°08'3 5.6
2017-Apr-22 15:30N 38°39' W 009°06'3 5.8
2017-Apr-22 15:01N 38°42' W 009°08'3 5.8
2017-Apr-22 14:30N 38°39' W 009°06'0 0.3
2017-Apr-22 13:30N 38°39' W 009°06'3 6.2
2017-Apr-22 13:00N 38°42' W 009°08'3 5.8
2017-Apr-22 12:30N 38°39' W 009°06'1 1.5
2017-Apr-22 12:00N 38°39' W 009°05'0 0.0
2017-Apr-22 11:30N 38°39' W 009°05'0 0.0
2017-Apr-22 11:00N 38°39' W 009°05'0 0.0
2017-Apr-22 10:30N 38°39' W 009°05'0 0.0
2017-Apr-22 10:00N 38°39' W 009°05'3 6.9
2017-Apr-22 09:30N 38°41' W 009°08'3 5.6
2017-Apr-22 09:00N 38°39' W 009°06'3 5.8
2017-Apr-22 08:31N 38°42' W 009°08'3 5.6
2017-Apr-22 08:00N 38°39' W 009°06'3 6.0
2017-Apr-22 07:30N 38°42' W 009°08'3 6.4
2017-Apr-22 07:00N 38°39' W 009°05'0 0.2
2017-Apr-22 06:31N 38°39' W 009°05'2 4.0
2017-Apr-22 06:01N 38°40' W 009°07'1 1.5
2017-Apr-22 05:30N 38°40' W 009°07'1 2.8
2017-Apr-22 05:01N 38°41' W 009°08'3 0.5
2017-Apr-21 22:58N 38°39' W 009°05'4 9.0
2017-Apr-21 22:30N 38°42' W 009°08'4 8.3
2017-Apr-21 22:00N 38°39' W 009°05'3 6.5
2017-Apr-21 21:31N 38°41' W 009°08'3 6.5
2017-Apr-21 21:00N 38°39' W 009°05'3 6.8
2017-Apr-21 20:30N 38°41' W 009°08'3 6.7
2017-Apr-21 20:00N 38°39' W 009°05'0 0.0
2017-Apr-21 19:30N 38°39' W 009°05'4 8.3
2017-Apr-21 19:01N 38°42' W 009°08'4 8.4
2017-Apr-21 18:31N 38°39' W 009°05'4 8.3
2017-Apr-21 18:00N 38°42' W 009°08'4 8.4
2017-Apr-21 17:30N 38°39' W 009°05'4 7.8
2017-Apr-21 17:01N 38°42' W 009°08'2 4.5
2017-Apr-21 16:30N 38°40' W 009°07'0 1.0
2017-Apr-21 16:01N 38°40' W 009°07'2 4.6
2017-Apr-21 15:30N 38°39' W 009°05'0 0.0
2017-Apr-21 12:58N 38°39' W 009°05'3 6.9
2017-Apr-21 12:31N 38°41' W 009°08'3 5.1
2017-Apr-21 12:00N 38°39' W 009°06'3 6.2
2017-Apr-21 11:31N 38°42' W 009°08'3 6.7
2017-Apr-21 10:59N 38°39' W 009°05'4 7.7
2017-Apr-21 10:30N 38°42' W 009°08'4 6.9
2017-Apr-21 09:56N 38°39' W 009°05'0 0.0
2017-Apr-21 09:28N 38°39' W 009°05'3 7.2
2017-Apr-21 09:00N 38°41' W 009°08'3 5.1
2017-Apr-21 08:30N 38°39' W 009°06'2 4.7
2017-Apr-21 08:00N 38°41' W 009°08'3 6.2
2017-Apr-21 07:30N 38°39' W 009°05'4 8.3
2017-Apr-21 07:00N 38°42' W 009°08'4 8.5
2017-Apr-21 06:30N 38°39' W 009°05'4 7.3
2017-Apr-21 06:00N 38°42' W 009°08'4 7.4
2017-Apr-21 05:31N 38°39' W 009°05'0 0.0
2017-Apr-20 20:13N 38°39' W 009°05'2 8.8
2017-Apr-20 20:00N 38°40' W 009°07'1 1.6
2017-Apr-20 19:30N 38°41' W 009°07'3 5.3
2017-Apr-20 19:00N 38°39' W 009°05'2 4.1
2017-Apr-20 18:30N 38°40' W 009°07'1 1.6
2017-Apr-20 18:01N 38°40' W 009°06'3 6.1
2017-Apr-20 17:31N 38°42' W 009°08'4 8.3
2017-Apr-20 17:01N 38°39' W 009°05'4 7.8
2017-Apr-20 16:31N 38°42' W 009°08'2 4.7
2017-Apr-20 16:00N 38°40' W 009°07'1 1.8
2017-Apr-20 15:31N 38°41' W 009°08'3 5.2
2017-Apr-20 14:59N 38°39' W 009°05'0 0.0
2017-Apr-20 14:30N 38°39' W 009°05'0 0.4
2017-Apr-20 13:28N 38°39' W 009°05'3 6.9
2017-Apr-20 13:00N 38°42' W 009°08'3 5.8
2017-Apr-20 12:30N 38°39' W 009°06'3 6.2
2017-Apr-20 12:00N 38°42' W 009°08'3 5.9
2017-Apr-20 11:29N 38°39' W 009°05'3 6.1
2017-Apr-20 11:00N 38°41' W 009°08'3 5.0
2017-Apr-20 10:30N 38°39' W 009°06'1 1.8
2017-Apr-20 09:59N 38°39' W 009°05'0 0.0
2017-Apr-20 09:30N 38°39' W 009°05'4 8.2
2017-Apr-20 09:01N 38°42' W 009°08'4 8.1
2017-Apr-20 08:31N 38°39' W 009°05'4 8.3
2017-Apr-20 08:00N 38°42' W 009°08'4 7.0
2017-Apr-20 07:30N 38°39' W 009°06'2 3.4
2017-Apr-20 07:01N 38°40' W 009°07'1 1.4
2017-Apr-20 06:30N 38°40' W 009°07'1 2.8
2017-Apr-20 06:00N 38°39' W 009°05'0 0.8
2017-Apr-20 05:29N 38°39' W 009°05'0 0.0
2017-Apr-19 20:29N 38°39' W 009°05'4 8.6
2017-Apr-19 20:00N 38°42' W 009°08'4 8.3
2017-Apr-19 19:30N 38°39' W 009°05'2 3.4
2017-Apr-19 19:00N 38°40' W 009°07'1 2.4
2017-Apr-19 18:31N 38°41' W 009°08'1 2.4
2017-Apr-19 18:00N 38°40' W 009°07'0 0.7
2017-Apr-19 17:30N 38°40' W 009°06'3 5.9
2017-Apr-19 17:00N 38°42' W 009°08'4 8.3
2017-Apr-19 16:31N 38°39' W 009°05'4 8.2
2017-Apr-19 16:00N 38°42' W 009°08'4 7.7
2017-Apr-19 15:30N 38°39' W 009°05'4 7.7
2017-Apr-19 15:00N 38°42' W 009°08'4 7.9
2017-Apr-19 14:30N 38°39' W 009°05'0 0.1
2017-Apr-19 13:24N 38°39' W 009°05'0 0.0
2017-Apr-19 12:58N 38°39' W 009°05'0 0.0
2017-Apr-19 12:28N 38°39' W 009°05'0 0.0
2017-Apr-19 12:00N 38°39' W 009°05'0 0.0
2017-Apr-19 11:29N 38°39' W 009°05'0 0.0
2017-Apr-19 10:57N 38°39' W 009°05'0 0.0
2017-Apr-19 10:30N 38°39' W 009°05'0 0.0
2017-Apr-19 10:00N 38°39' W 009°05'4 7.4
2017-Apr-19 09:30N 38°42' W 009°08'3 6.9
2017-Apr-19 09:00N 38°39' W 009°05'1 1.0
2017-Apr-19 08:31N 38°39' W 009°05'3 5.9
2017-Apr-19 08:01N 38°41' W 009°08'1 2.1
2017-Apr-19 07:31N 38°40' W 009°07'2 3.3
2017-Apr-19 07:00N 38°39' W 009°05'4 7.5
2017-Apr-19 06:30N 38°42' W 009°08'4 8.3
2017-Apr-19 06:00N 38°39' W 009°05'4 7.2
2017-Apr-19 05:30N 38°42' W 009°08'3 6.6
2017-Apr-19 05:00N 38°39' W 009°05'3 6.4
2017-Apr-19 04:30N 38°42' W 009°08'3 6.9
2017-Apr-19 04:00N 38°39' W 009°05'0 0.0
2017-Apr-19 03:30N 38°39' W 009°05'0 0.0
2017-Apr-19 03:00N 38°39' W 009°05'0 0.0
2017-Apr-19 02:30N 38°39' W 009°05'0 0.0
2017-Apr-19 02:00N 38°39' W 009°05'0 0.0
2017-Apr-19 01:30N 38°39' W 009°05'4 8.2
2017-Apr-19 01:00N 38°42' W 009°08'4 8.3
2017-Apr-19 00:30N 38°39' W 009°05'4 8.3
2017-Apr-19 00:00N 38°42' W 009°08'4 8.3
2017-Apr-18 23:30N 38°39' W 009°05'4 8.3
2017-Apr-18 23:00N 38°42' W 009°08'4 8.3
2017-Apr-18 22:30N 38°39' W 009°05'3 6.9
2017-Apr-18 22:00N 38°42' W 009°08'3 5.2
2017-Apr-18 21:30N 38°39' W 009°06'  

Dump ship's entire track history